TimeCDT,TemperatureF,Dew PointF,Humidity,Sea Level PressureIn,VisibilityMPH,Wind Direction,Wind SpeedMPH,Gust SpeedMPH,PrecipitationIn,Events,Conditions,WindDirDegrees,DateUTC
12:15 AM,84.4,59.9,43,30.05,10.0,SE,4.6,-,N/A,,Clear,140,2013-08-22 05:15:00
12:35 AM,83.5,60.1,45,30.04,10.0,SSE,5.8,-,N/A,,Clear,160,2013-08-22 05:35:00
12:55 AM,84.2,59.7,43,30.04,10.0,SSE,4.6,-,N/A,,Clear,160,2013-08-22 05:55:00
1:15 AM,83.3,59.9,45,30.04,10.0,SSE,5.8,-,N/A,,Clear,160,2013-08-22 06:15:00
1:35 AM,83.3,59.9,45,30.03,10.0,South,4.6,-,N/A,,Clear,170,2013-08-22 06:35:00
1:55 AM,84.2,59.9,44,30.03,10.0,Calm,Calm,-,N/A,,Clear,0,2013-08-22 06:55:00
2:15 AM,83.1,60.4,46,30.03,10.0,Calm,Calm,-,N/A,,Clear,0,2013-08-22 07:15:00
2:35 AM,81.5,61.0,50,30.03,10.0,SSE,6.9,-,N/A,,Clear,160,2013-08-22 07:35:00
2:55 AM,84.4,60.6,45,30.03,10.0,South,6.9,-,N/A,,Scattered Clouds,180,2013-08-22 07:55:00
3:15 AM,83.7,62.1,48,30.03,10.0,South,5.8,-,N/A,,Scattered Clouds,180,2013-08-22 08:15:00
3:35 AM,83.1,63.0,50,30.03,10.0,South,5.8,-,N/A,,Clear,190,2013-08-22 08:35:00
3:55 AM,82.6,63.9,53,30.04,10.0,SSW,4.6,-,N/A,,Clear,200,2013-08-22 08:55:00
4:15 AM,82.4,64.6,55,30.05,10.0,SSW,3.5,-,N/A,,Clear,200,2013-08-22 09:15:00
4:35 AM,81.9,65.3,57,30.05,10.0,SSW,4.6,-,N/A,,Clear,200,2013-08-22 09:35:00
4:55 AM,81.9,65.5,57,30.05,10.0,SSW,3.5,-,N/A,,Clear,200,2013-08-22 09:55:00
5:15 AM,81.7,66.2,59,30.06,10.0,South,3.5,-,N/A,,Clear,190,2013-08-22 10:15:00
5:35 AM,81.5,66.4,60,30.06,10.0,South,3.5,-,N/A,,Scattered Clouds,190,2013-08-22 10:35:00
5:55 AM,81.5,66.6,60,30.06,10.0,South,3.5,-,N/A,,Scattered Clouds,180,2013-08-22 10:55:00
6:47 AM,80.6,68.0,65,30.07,13.0,South,5.8,-,N/A,,Mostly Cloudy,180,2013-08-22 11:47:00
7:49 AM,82.4,68.0,62,30.08,13.0,South,5.8,-,N/A,,Scattered Clouds,180,2013-08-22 12:49:00
8:47 AM,84.2,68.0,58,30.10,13.0,South,6.9,-,N/A,,Scattered Clouds,170,2013-08-22 13:47:00
9:47 AM,86.0,68.0,55,30.10,13.0,South,8.1,-,N/A,,Scattered Clouds,180,2013-08-22 14:47:00
10:55 AM,87.8,68.0,52,30.10,13.0,South,5.8,-,N/A,,Scattered Clouds,180,2013-08-22 15:55:00
11:47 AM,89.6,66.2,46,30.09,13.0,SSW,6.9,-,N/A,,Scattered Clouds,200,2013-08-22 16:47:00
12:47 PM,91.4,64.4,41,30.07,13.0,SW,8.1,-,N/A,,Scattered Clouds,220,2013-08-22 17:47:00
1:47 PM,93.2,64.4,38,30.05,13.0,South,5.8,-,N/A,,Mostly Cloudy,170,2013-08-22 18:47:00
2:47 PM,95.0,62.6,34,30.03,13.0,SSW,6.9,-,N/A,,Mostly Cloudy,210,2013-08-22 19:47:00
3:47 PM,96.8,62.6,32,30.00,13.0,SW,3.5,-,N/A,,Mostly Cloudy,230,2013-08-22 20:47:00
4:47 PM,96.8,60.8,30,29.97,13.0,SSE,8.1,-,N/A,,Scattered Clouds,160,2013-08-22 21:47:00
5:47 PM,96.8,60.8,30,29.95,13.0,WSW,5.8,-,N/A,,Partly Cloudy,240,2013-08-22 22:47:00
6:51 PM,95.0,60.8,32,29.94,13.0,Calm,Calm,-,N/A,,Scattered Clouds,0,2013-08-22 23:51:00
7:47 PM,95.0,59.0,30,29.94,13.0,ESE,5.8,-,N/A,,Scattered Clouds,120,2013-08-23 00:47:00
8:47 PM,93.2,60.8,34,29.96,13.0,SE,6.9,-,N/A,,Partly Cloudy,130,2013-08-23 01:47:00
9:47 PM,89.6,64.4,43,29.99,13.0,SE,8.1,16.1,N/A,,Partly Cloudy,130,2013-08-23 02:47:00
10:15 PM,90.0,62.1,39,30.00,10.0,SE,9.2,-,N/A,,Clear,140,2013-08-23 03:15:00
10:35 PM,89.6,62.6,40,30.00,10.0,SE,8.1,-,N/A,,Clear,140,2013-08-23 03:35:00
10:55 PM,89.1,62.6,41,30.00,10.0,SSE,8.1,-,N/A,,Scattered Clouds,160,2013-08-23 03:55:00
11:15 PM,88.7,62.8,42,30.01,10.0,SSE,10.4,-,N/A,,Scattered Clouds,160,2013-08-23 04:15:00
11:35 PM,88.7,63.3,43,30.00,10.0,SSE,10.4,-,N/A,,Clear,160,2013-08-23 04:35:00
11:55 PM,88.0,63.3,44,30.01,10.0,SSE,8.1,-,N/A,,Clear,150,2013-08-23 04:55:00